sensor_id;sensor_type;location;lat;lon;timestamp;temperature;humidity
11615;DHT22;5863;52.832;4.758;2023-06-26T00:01:30;22.00;99.90
11615;DHT22;5863;52.832;4.758;2023-06-26T00:03:57;22.00;99.90
11615;DHT22;5863;52.832;4.758;2023-06-26T00:06:24;22.00;99.90
11615;DHT22;5863;52.832;4.758;2023-06-26T00:08:51;22.00;99.90
11615;DHT22;5863;52.832;4.758;2023-06-26T00:11:19;22.00;99.90
11615;DHT22;5863;52.832;4.758;2023-06-26T00:13:47;22.00;99.90
11615;DHT22;5863;52.832;4.758;2023-06-26T00:16:14;22.10;99.90
11615;DHT22;5863;52.832;4.758;2023-06-26T00:18:40;22.10;99.90
11615;DHT22;5863;52.832;4.758;2023-06-26T00:21:07;22.10;99.90
11615;DHT22;5863;52.832;4.758;2023-06-26T00:23:34;22.10;99.90
11615;DHT22;5863;52.832;4.758;2023-06-26T00:26:02;22.20;99.90
11615;DHT22;5863;52.832;4.758;2023-06-26T00:28:29;22.20;99.90
11615;DHT22;5863;52.832;4.758;2023-06-26T00:30:57;22.20;99.90
11615;DHT22;5863;52.832;4.758;2023-06-26T00:33:23;22.10;99.90
11615;DHT22;5863;52.832;4.758;2023-06-26T00:35:50;22.30;99.90
11615;DHT22;5863;52.832;4.758;2023-06-26T00:38:17;22.30;99.90
11615;DHT22;5863;52.832;4.758;2023-06-26T00:40:44;22.30;99.90
11615;DHT22;5863;52.832;4.758;2023-06-26T00:43:11;22.30;99.90
11615;DHT22;5863;52.832;4.758;2023-06-26T00:45:37;22.30;99.90
11615;DHT22;5863;52.832;4.758;2023-06-26T00:48:05;22.30;99.90
11615;DHT22;5863;52.832;4.758;2023-06-26T00:50:32;22.30;99.90
11615;DHT22;5863;52.832;4.758;2023-06-26T00:52:59;22.30;99.90
11615;DHT22;5863;52.832;4.758;2023-06-26T00:55:26;22.40;99.90
11615;DHT22;5863;52.832;4.758;2023-06-26T00:57:54;22.40;99.90
11615;DHT22;5863;52.832;4.758;2023-06-26T01:00:21;22.30;99.90
11615;DHT22;5863;52.832;4.758;2023-06-26T01:02:48;22.20;99.90
11615;DHT22;5863;52.832;4.758;2023-06-26T01:05:16;22.20;99.90
11615;DHT22;5863;52.832;4.758;2023-06-26T01:07:46;22.20;99.90
11615;DHT22;5863;52.832;4.758;2023-06-26T01:10:14;22.20;99.90
11615;DHT22;5863;52.832;4.758;2023-06-26T01:12:41;22.20;99.90
11615;DHT22;5863;52.832;4.758;2023-06-26T01:15:10;22.20;99.90
11615;DHT22;5863;52.832;4.758;2023-06-26T01:17:37;22.10;99.90
11615;DHT22;5863;52.832;4.758;2023-06-26T01:20:06;22.00;99.90
11615;DHT22;5863;52.832;4.758;2023-06-26T01:22:39;21.90;99.90
11615;DHT22;5863;52.832;4.758;2023-06-26T01:25:15;21.90;99.90
11615;DHT22;5863;52.832;4.758;2023-06-26T01:27:46;21.80;99.90
11615;DHT22;5863;52.832;4.758;2023-06-26T01:30:13;21.80;99.90
11615;DHT22;5863;52.832;4.758;2023-06-26T01:32:42;21.80;99.90
11615;DHT22;5863;52.832;4.758;2023-06-26T01:35:10;21.80;99.90
11615;DHT22;5863;52.832;4.758;2023-06-26T01:37:37;21.70;99.90
11615;DHT22;5863;52.832;4.758;2023-06-26T01:40:04;21.70;99.90
11615;DHT22;5863;52.832;4.758;2023-06-26T01:42:31;21.60;99.90
11615;DHT22;5863;52.832;4.758;2023-06-26T01:45:00;21.60;99.90
11615;DHT22;5863;52.832;4.758;2023-06-26T01:47:31;21.60;99.90
11615;DHT22;5863;52.832;4.758;2023-06-26T01:50:06;21.60;99.90
11615;DHT22;5863;52.832;4.758;2023-06-26T01:52:40;21.50;99.90
11615;DHT22;5863;52.832;4.758;2023-06-26T01:55:12;21.50;99.90
11615;DHT22;5863;52.832;4.758;2023-06-26T01:57:41;21.40;99.90
11615;DHT22;5863;52.832;4.758;2023-06-26T02:00:11;21.50;99.90
11615;DHT22;5863;52.832;4.758;2023-06-26T02:02:40;21.50;99.90
11615;DHT22;5863;52.832;4.758;2023-06-26T02:05:07;21.40;99.90
11615;DHT22;5863;52.832;4.758;2023-06-26T02:07:34;21.40;99.90
11615;DHT22;5863;52.832;4.758;2023-06-26T02:10:01;21.40;99.90
11615;DHT22;5863;52.832;4.758;2023-06-26T02:12:28;21.30;99.90
11615;DHT22;5863;52.832;4.758;2023-06-26T02:14:54;21.30;99.90
11615;DHT22;5863;52.832;4.758;2023-06-26T02:17:22;21.30;99.90
11615;DHT22;5863;52.832;4.758;2023-06-26T02:19:49;21.30;99.90
11615;DHT22;5863;52.832;4.758;2023-06-26T02:22:16;21.20;99.90
11615;DHT22;5863;52.832;4.758;2023-06-26T02:24:43;21.20;99.90
11615;DHT22;5863;52.832;4.758;2023-06-26T02:27:10;21.10;99.90
11615;DHT22;5863;52.832;4.758;2023-06-26T02:29:37;21.10;99.90
11615;DHT22;5863;52.832;4.758;2023-06-26T02:32:05;21.10;99.90
11615;DHT22;5863;52.832;4.758;2023-06-26T02:34:34;21.00;99.90
11615;DHT22;5863;52.832;4.758;2023-06-26T02:37:00;21.00;99.90
11615;DHT22;5863;52.832;4.758;2023-06-26T02:39:27;20.90;99.90
11615;DHT22;5863;52.832;4.758;2023-06-26T02:41:54;20.90;99.90
11615;DHT22;5863;52.832;4.758;2023-06-26T02:44:20;20.90;99.90
11615;DHT22;5863;52.832;4.758;2023-06-26T02:46:47;20.90;99.90
11615;DHT22;5863;52.832;4.758;2023-06-26T02:49:14;20.90;99.90
11615;DHT22;5863;52.832;4.758;2023-06-26T02:51:42;20.90;99.90
11615;DHT22;5863;52.832;4.758;2023-06-26T02:54:09;20.90;99.90
11615;DHT22;5863;52.832;4.758;2023-06-26T02:56:35;20.90;99.90
11615;DHT22;5863;52.832;4.758;2023-06-26T02:59:02;20.80;99.90
11615;DHT22;5863;52.832;4.758;2023-06-26T03:01:29;20.80;99.90
11615;DHT22;5863;52.832;4.758;2023-06-26T03:03:58;20.70;99.90
11615;DHT22;5863;52.832;4.758;2023-06-26T03:06:26;20.70;99.90
11615;DHT22;5863;52.832;4.758;2023-06-26T03:08:54;20.70;99.90
11615;DHT22;5863;52.832;4.758;2023-06-26T03:11:20;20.70;99.90
11615;DHT22;5863;52.832;4.758;2023-06-26T03:13:47;20.70;99.90
11615;DHT22;5863;52.832;4.758;2023-06-26T03:16:14;20.60;99.90
11615;DHT22;5863;52.832;4.758;2023-06-26T03:18:40;20.60;99.90
11615;DHT22;5863;52.832;4.758;2023-06-26T03:21:08;20.60;99.90
11615;DHT22;5863;52.832;4.758;2023-06-26T03:23:35;20.60;99.90
11615;DHT22;5863;52.832;4.758;2023-06-26T03:26:03;20.50;99.90
11615;DHT22;5863;52.832;4.758;2023-06-26T03:28:29;20.50;99.90
11615;DHT22;5863;52.832;4.758;2023-06-26T03:30:57;20.50;99.90
11615;DHT22;5863;52.832;4.758;2023-06-26T03:33:24;20.50;99.90
11615;DHT22;5863;52.832;4.758;2023-06-26T03:35:51;20.50;99.90
11615;DHT22;5863;52.832;4.758;2023-06-26T03:38:17;20.40;99.90
11615;DHT22;5863;52.832;4.758;2023-06-26T03:40:44;20.40;99.90
11615;DHT22;5863;52.832;4.758;2023-06-26T03:43:13;20.40;99.90
11615;DHT22;5863;52.832;4.758;2023-06-26T03:45:40;20.40;99.90
11615;DHT22;5863;52.832;4.758;2023-06-26T03:48:07;20.30;99.90
11615;DHT22;5863;52.832;4.758;2023-06-26T03:50:34;20.30;99.90
11615;DHT22;5863;52.832;4.758;2023-06-26T03:53:01;20.20;99.90
11615;DHT22;5863;52.832;4.758;2023-06-26T03:55:28;20.20;99.90
11615;DHT22;5863;52.832;4.758;2023-06-26T03:57:54;20.20;99.90
11615;DHT22;5863;52.832;4.758;2023-06-26T04:00:22;20.20;99.90
11615;DHT22;5863;52.832;4.758;2023-06-26T04:02:49;20.20;99.90
11615;DHT22;5863;52.832;4.758;2023-06-26T04:05:17;20.20;99.90
11615;DHT22;5863;52.832;4.758;2023-06-26T04:07:43;20.20;99.90
11615;DHT22;5863;52.832;4.758;2023-06-26T04:10:10;20.20;99.90
11615;DHT22;5863;52.832;4.758;2023-06-26T04:12:37;20.20;99.90
11615;DHT22;5863;52.832;4.758;2023-06-26T04:15:04;20.10;99.90
11615;DHT22;5863;52.832;4.758;2023-06-26T04:17:32;20.10;99.90
11615;DHT22;5863;52.832;4.758;2023-06-26T04:19:59;20.10;99.90
11615;DHT22;5863;52.832;4.758;2023-06-26T04:22:26;20.20;99.90
11615;DHT22;5863;52.832;4.758;2023-06-26T04:24:52;20.30;99.90
11615;DHT22;5863;52.832;4.758;2023-06-26T04:27:20;20.30;99.90
11615;DHT22;5863;52.832;4.758;2023-06-26T04:29:47;20.40;99.90
11615;DHT22;5863;52.832;4.758;2023-06-26T04:32:13;20.40;99.90
11615;DHT22;5863;52.832;4.758;2023-06-26T04:34:41;20.50;99.90
11615;DHT22;5863;52.832;4.758;2023-06-26T04:37:09;20.60;99.90
11615;DHT22;5863;52.832;4.758;2023-06-26T04:39:36;20.70;99.90
11615;DHT22;5863;52.832;4.758;2023-06-26T04:42:04;20.80;99.90
11615;DHT22;5863;52.832;4.758;2023-06-26T04:44:31;20.90;99.90
11615;DHT22;5863;52.832;4.758;2023-06-26T04:46:58;21.00;99.90
11615;DHT22;5863;52.832;4.758;2023-06-26T04:49:25;21.10;99.90
11615;DHT22;5863;52.832;4.758;2023-06-26T04:51:54;21.30;99.90
11615;DHT22;5863;52.832;4.758;2023-06-26T04:54:21;21.40;99.90
11615;DHT22;5863;52.832;4.758;2023-06-26T04:56:47;21.50;99.90
11615;DHT22;5863;52.832;4.758;2023-06-26T04:59:14;21.70;99.90
11615;DHT22;5863;52.832;4.758;2023-06-26T05:01:41;22.10;99.90
11615;DHT22;5863;52.832;4.758;2023-06-26T05:04:09;22.50;99.90
11615;DHT22;5863;52.832;4.758;2023-06-26T05:06:36;23.00;99.90
11615;DHT22;5863;52.832;4.758;2023-06-26T05:09:04;23.40;99.90
11615;DHT22;5863;52.832;4.758;2023-06-26T05:11:30;23.90;99.90
11615;DHT22;5863;52.832;4.758;2023-06-26T05:13:57;24.20;99.90
11615;DHT22;5863;52.832;4.758;2023-06-26T05:16:24;24.60;99.90
11615;DHT22;5863;52.832;4.758;2023-06-26T05:18:50;25.00;99.90
11615;DHT22;5863;52.832;4.758;2023-06-26T05:21:18;25.00;99.90
11615;DHT22;5863;52.832;4.758;2023-06-26T05:23:45;24.80;99.90
11615;DHT22;5863;52.832;4.758;2023-06-26T05:26:14;25.00;99.90
11615;DHT22;5863;52.832;4.758;2023-06-26T05:28:41;25.30;99.90
11615;DHT22;5863;52.832;4.758;2023-06-26T05:31:10;25.70;99.90
11615;DHT22;5863;52.832;4.758;2023-06-26T05:33:37;26.10;99.40
11615;DHT22;5863;52.832;4.758;2023-06-26T05:36:07;26.50;99.00
11615;DHT22;5863;52.832;4.758;2023-06-26T05:38:36;26.70;98.60
11615;DHT22;5863;52.832;4.758;2023-06-26T05:41:03;26.90;98.00
11615;DHT22;5863;52.832;4.758;2023-06-26T05:43:31;27.10;97.60
11615;DHT22;5863;52.832;4.758;2023-06-26T05:45:57;27.30;97.10
11615;DHT22;5863;52.832;4.758;2023-06-26T05:48:24;27.60;96.80
11615;DHT22;5863;52.832;4.758;2023-06-26T05:50:51;27.80;96.30
11615;DHT22;5863;52.832;4.758;2023-06-26T05:53:19;28.00;96.00
11615;DHT22;5863;52.832;4.758;2023-06-26T05:55:46;28.20;95.50
11615;DHT22;5863;52.832;4.758;2023-06-26T05:58:14;28.30;95.20
11615;DHT22;5863;52.832;4.758;2023-06-26T06:00:43;28.50;95.00
11615;DHT22;5863;52.832;4.758;2023-06-26T06:03:10;28.60;94.80
11615;DHT22;5863;52.832;4.758;2023-06-26T06:05:36;28.70;94.60
11615;DHT22;5863;52.832;4.758;2023-06-26T06:08:03;28.90;94.10
11615;DHT22;5863;52.832;4.758;2023-06-26T06:10:30;28.80;93.90
11615;DHT22;5863;52.832;4.758;2023-06-26T06:12:57;28.80;94.00
11615;DHT22;5863;52.832;4.758;2023-06-26T06:15:24;29.00;94.00
11615;DHT22;5863;52.832;4.758;2023-06-26T06:17:52;29.30;94.10
11615;DHT22;5863;52.832;4.758;2023-06-26T06:20:18;29.50;93.40
11615;DHT22;5863;52.832;4.758;2023-06-26T06:22:46;29.70;92.70
11615;DHT22;5863;52.832;4.758;2023-06-26T06:25:13;29.70;92.70
11615;DHT22;5863;52.832;4.758;2023-06-26T06:27:41;29.70;92.80
11615;DHT22;5863;52.832;4.758;2023-06-26T06:30:09;29.90;92.60
11615;DHT22;5863;52.832;4.758;2023-06-26T06:32:36;30.10;92.30
11615;DHT22;5863;52.832;4.758;2023-06-26T06:35:05;30.20;92.20
11615;DHT22;5863;52.832;4.758;2023-06-26T06:37:35;30.40;91.80
11615;DHT22;5863;52.832;4.758;2023-06-26T06:40:02;30.30;91.70
11615;DHT22;5863;52.832;4.758;2023-06-26T06:42:30;30.40;91.50
11615;DHT22;5863;52.832;4.758;2023-06-26T06:44:56;30.00;91.40
11615;DHT22;5863;52.832;4.758;2023-06-26T06:47:23;29.80;91.60
11615;DHT22;5863;52.832;4.758;2023-06-26T06:49:49;30.00;91.60
11615;DHT22;5863;52.832;4.758;2023-06-26T06:52:17;30.10;91.30
11615;DHT22;5863;52.832;4.758;2023-06-26T06:54:54;30.20;91.10
11615;DHT22;5863;52.832;4.758;2023-06-26T06:57:24;30.20;91.10
11615;DHT22;5863;52.832;4.758;2023-06-26T06:59:51;30.10;90.80
11615;DHT22;5863;52.832;4.758;2023-06-26T07:02:17;29.80;91.00
11615;DHT22;5863;52.832;4.758;2023-06-26T07:04:44;29.70;91.40
11615;DHT22;5863;52.832;4.758;2023-06-26T07:07:12;29.60;90.70
11615;DHT22;5863;52.832;4.758;2023-06-26T07:09:40;29.70;90.70
11615;DHT22;5863;52.832;4.758;2023-06-26T07:12:07;29.90;90.30
11615;DHT22;5863;52.832;4.758;2023-06-26T07:14:34;30.10;90.10
11615;DHT22;5863;52.832;4.758;2023-06-26T07:17:01;30.40;89.60
11615;DHT22;5863;52.832;4.758;2023-06-26T07:19:27;30.50;88.20
11615;DHT22;5863;52.832;4.758;2023-06-26T07:21:54;30.70;87.80
11615;DHT22;5863;52.832;4.758;2023-06-26T07:24:21;30.80;87.30
11615;DHT22;5863;52.832;4.758;2023-06-26T07:26:49;30.90;86.90
11615;DHT22;5863;52.832;4.758;2023-06-26T07:29:16;30.90;86.00
11615;DHT22;5863;52.832;4.758;2023-06-26T07:31:43;30.90;85.00
11615;DHT22;5863;52.832;4.758;2023-06-26T07:34:10;31.10;84.70
11615;DHT22;5863;52.832;4.758;2023-06-26T07:36:37;31.10;83.70
11615;DHT22;5863;52.832;4.758;2023-06-26T07:39:04;30.90;81.60
11615;DHT22;5863;52.832;4.758;2023-06-26T07:41:30;30.90;82.00
11615;DHT22;5863;52.832;4.758;2023-06-26T07:43:58;30.90;82.40
11615;DHT22;5863;52.832;4.758;2023-06-26T07:46:25;31.10;82.10
11615;DHT22;5863;52.832;4.758;2023-06-26T07:48:52;31.20;82.20
11615;DHT22;5863;52.832;4.758;2023-06-26T07:51:19;31.10;81.50
11615;DHT22;5863;52.832;4.758;2023-06-26T07:53:45;31.20;81.40
11615;DHT22;5863;52.832;4.758;2023-06-26T07:56:12;31.30;81.90
11615;DHT22;5863;52.832;4.758;2023-06-26T07:58:39;31.20;82.20
11615;DHT22;5863;52.832;4.758;2023-06-26T08:01:07;31.20;82.40
11615;DHT22;5863;52.832;4.758;2023-06-26T08:03:33;31.20;82.50
11615;DHT22;5863;52.832;4.758;2023-06-26T08:06:00;31.20;82.90
11615;DHT22;5863;52.832;4.758;2023-06-26T08:08:27;31.20;83.00
11615;DHT22;5863;52.832;4.758;2023-06-26T08:10:53;31.10;82.70
11615;DHT22;5863;52.832;4.758;2023-06-26T08:13:20;30.90;83.10
11615;DHT22;5863;52.832;4.758;2023-06-26T08:15:47;30.80;84.20
11615;DHT22;5863;52.832;4.758;2023-06-26T08:18:15;30.60;84.10
11615;DHT22;5863;52.832;4.758;2023-06-26T08:20:42;30.20;84.10
11615;DHT22;5863;52.832;4.758;2023-06-26T08:23:09;29.80;85.00
11615;DHT22;5863;52.832;4.758;2023-06-26T08:25:35;29.20;86.40
11615;DHT22;5863;52.832;4.758;2023-06-26T08:28:02;28.70;87.40
11615;DHT22;5863;52.832;4.758;2023-06-26T08:30:29;28.30;88.60
11615;DHT22;5863;52.832;4.758;2023-06-26T08:32:55;28.00;88.80
11615;DHT22;5863;52.832;4.758;2023-06-26T08:35:24;27.70;89.90
11615;DHT22;5863;52.832;4.758;2023-06-26T08:37:51;27.50;90.00
11615;DHT22;5863;52.832;4.758;2023-06-26T08:40:20;27.30;90.50
11615;DHT22;5863;52.832;4.758;2023-06-26T08:42:47;27.10;90.80
11615;DHT22;5863;52.832;4.758;2023-06-26T08:45:18;27.00;91.00
11615;DHT22;5863;52.832;4.758;2023-06-26T08:47:45;26.80;91.20
11615;DHT22;5863;52.832;4.758;2023-06-26T08:50:16;26.70;91.40
11615;DHT22;5863;52.832;4.758;2023-06-26T08:52:50;26.50;91.40
11615;DHT22;5863;52.832;4.758;2023-06-26T08:55:20;26.50;91.50
11615;DHT22;5863;52.832;4.758;2023-06-26T08:57:50;26.50;91.90
11615;DHT22;5863;52.832;4.758;2023-06-26T09:00:17;26.30;92.00
11615;DHT22;5863;52.832;4.758;2023-06-26T09:02:45;26.30;92.00
11615;DHT22;5863;52.832;4.758;2023-06-26T09:05:12;26.20;92.10
11615;DHT22;5863;52.832;4.758;2023-06-26T09:07:38;26.20;92.20
11615;DHT22;5863;52.832;4.758;2023-06-26T09:10:07;26.10;92.30
11615;DHT22;5863;52.832;4.758;2023-06-26T09:12:35;26.00;92.40
11615;DHT22;5863;52.832;4.758;2023-06-26T09:15:02;25.90;92.50
11615;DHT22;5863;52.832;4.758;2023-06-26T09:17:33;25.90;92.60
11615;DHT22;5863;52.832;4.758;2023-06-26T09:20:00;25.70;92.70
11615;DHT22;5863;52.832;4.758;2023-06-26T09:22:26;25.70;92.70
11615;DHT22;5863;52.832;4.758;2023-06-26T09:24:53;25.60;92.70
11615;DHT22;5863;52.832;4.758;2023-06-26T09:27:22;25.40;92.80
11615;DHT22;5863;52.832;4.758;2023-06-26T09:29:50;25.50;92.90
11615;DHT22;5863;52.832;4.758;2023-06-26T09:32:17;25.60;93.00
11615;DHT22;5863;52.832;4.758;2023-06-26T09:34:44;25.60;93.00
11615;DHT22;5863;52.832;4.758;2023-06-26T09:37:12;25.60;93.00
11615;DHT22;5863;52.832;4.758;2023-06-26T09:39:39;25.50;93.00
11615;DHT22;5863;52.832;4.758;2023-06-26T09:42:06;25.40;93.10
11615;DHT22;5863;52.832;4.758;2023-06-26T09:44:34;25.30;93.60
11615;DHT22;5863;52.832;4.758;2023-06-26T09:47:01;25.30;93.80
11615;DHT22;5863;52.832;4.758;2023-06-26T09:49:29;25.30;93.60
11615;DHT22;5863;52.832;4.758;2023-06-26T09:52:00;25.30;93.20
11615;DHT22;5863;52.832;4.758;2023-06-26T09:54:27;25.30;93.50
11615;DHT22;5863;52.832;4.758;2023-06-26T09:56:55;25.30;93.20
11615;DHT22;5863;52.832;4.758;2023-06-26T09:59:22;25.20;93.50
11615;DHT22;5863;52.832;4.758;2023-06-26T10:01:59;25.20;93.40
11615;DHT22;5863;52.832;4.758;2023-06-26T10:04:26;25.10;93.40
11615;DHT22;5863;52.832;4.758;2023-06-26T10:06:56;25.00;93.50
11615;DHT22;5863;52.832;4.758;2023-06-26T10:09:23;25.00;94.00
11615;DHT22;5863;52.832;4.758;2023-06-26T10:11:55;25.00;93.60
11615;DHT22;5863;52.832;4.758;2023-06-26T10:14:23;24.90;93.80
11615;DHT22;5863;52.832;4.758;2023-06-26T10:16:55;24.90;93.60
11615;DHT22;5863;52.832;4.758;2023-06-26T10:19:24;24.90;93.70
11615;DHT22;5863;52.832;4.758;2023-06-26T10:21:54;24.90;93.80
11615;DHT22;5863;52.832;4.758;2023-06-26T10:24:23;24.80;93.80
11615;DHT22;5863;52.832;4.758;2023-06-26T10:26:52;24.80;93.80
11615;DHT22;5863;52.832;4.758;2023-06-26T10:29:22;24.80;93.80
11615;DHT22;5863;52.832;4.758;2023-06-26T10:31:54;24.70;93.80
11615;DHT22;5863;52.832;4.758;2023-06-26T10:34:22;24.70;94.00
11615;DHT22;5863;52.832;4.758;2023-06-26T10:36:58;24.70;94.40
11615;DHT22;5863;52.832;4.758;2023-06-26T10:39:26;24.70;93.80
11615;DHT22;5863;52.832;4.758;2023-06-26T10:41:54;24.60;94.00
11615;DHT22;5863;52.832;4.758;2023-06-26T10:44:21;24.60;94.10
11615;DHT22;5863;52.832;4.758;2023-06-26T10:46:49;24.60;94.00
11615;DHT22;5863;52.832;4.758;2023-06-26T10:49:19;24.60;94.10
11615;DHT22;5863;52.832;4.758;2023-06-26T10:51:46;24.60;94.10
11615;DHT22;5863;52.832;4.758;2023-06-26T10:54:15;24.60;94.30
11615;DHT22;5863;52.832;4.758;2023-06-26T10:56:43;24.70;93.90
11615;DHT22;5863;52.832;4.758;2023-06-26T10:59:17;24.60;94.10
11615;DHT22;5863;52.832;4.758;2023-06-26T11:01:46;24.70;94.40
11615;DHT22;5863;52.832;4.758;2023-06-26T11:04:13;24.60;94.10
11615;DHT22;5863;52.832;4.758;2023-06-26T11:06:45;24.50;94.10
11615;DHT22;5863;52.832;4.758;2023-06-26T11:09:15;24.50;94.30
11615;DHT22;5863;52.832;4.758;2023-06-26T11:12:00;24.40;94.40
11615;DHT22;5863;52.832;4.758;2023-06-26T11:14:36;24.50;94.20
11615;DHT22;5863;52.832;4.758;2023-06-26T11:17:03;24.30;94.20
11615;DHT22;5863;52.832;4.758;2023-06-26T11:19:30;24.30;94.40
11615;DHT22;5863;52.832;4.758;2023-06-26T11:22:05;24.10;94.50
11615;DHT22;5863;52.832;4.758;2023-06-26T11:24:32;24.10;94.70
11615;DHT22;5863;52.832;4.758;2023-06-26T11:27:05;24.00;94.80
11615;DHT22;5863;52.832;4.758;2023-06-26T11:29:32;24.00;94.70
11615;DHT22;5863;52.832;4.758;2023-06-26T11:32:01;23.90;94.90
11615;DHT22;5863;52.832;4.758;2023-06-26T11:34:31;23.90;94.90
11615;DHT22;5863;52.832;4.758;2023-06-26T11:36:59;23.80;94.90
11615;DHT22;5863;52.832;4.758;2023-06-26T11:39:29;23.70;95.10
11615;DHT22;5863;52.832;4.758;2023-06-26T11:41:56;23.60;95.40
11615;DHT22;5863;52.832;4.758;2023-06-26T11:44:23;23.60;95.50
11615;DHT22;5863;52.832;4.758;2023-06-26T11:46:54;23.70;95.70
11615;DHT22;5863;52.832;4.758;2023-06-26T11:49:21;23.70;95.60
11615;DHT22;5863;52.832;4.758;2023-06-26T11:51:48;23.60;95.50
11615;DHT22;5863;52.832;4.758;2023-06-26T11:54:22;23.60;95.60
11615;DHT22;5863;52.832;4.758;2023-06-26T11:56:56;23.60;95.60
11615;DHT22;5863;52.832;4.758;2023-06-26T11:59:23;23.50;95.70
11615;DHT22;5863;52.832;4.758;2023-06-26T12:01:51;23.40;95.80
11615;DHT22;5863;52.832;4.758;2023-06-26T12:04:18;23.40;95.90
11615;DHT22;5863;52.832;4.758;2023-06-26T12:06:47;23.30;95.80
11615;DHT22;5863;52.832;4.758;2023-06-26T12:09:17;23.40;95.80
11615;DHT22;5863;52.832;4.758;2023-06-26T12:11:46;23.40;95.90
11615;DHT22;5863;52.832;4.758;2023-06-26T12:14:17;23.50;95.80
11615;DHT22;5863;52.832;4.758;2023-06-26T12:16:44;23.40;95.70
11615;DHT22;5863;52.832;4.758;2023-06-26T12:19:11;23.50;96.10
11615;DHT22;5863;52.832;4.758;2023-06-26T12:21:46;23.50;96.30
11615;DHT22;5863;52.832;4.758;2023-06-26T12:24:19;23.60;96.10
11615;DHT22;5863;52.832;4.758;2023-06-26T12:26:48;23.60;96.10
11615;DHT22;5863;52.832;4.758;2023-06-26T12:29:19;23.60;95.80
11615;DHT22;5863;52.832;4.758;2023-06-26T12:31:48;23.50;96.00
11615;DHT22;5863;52.832;4.758;2023-06-26T12:34:19;23.50;96.30
11615;DHT22;5863;52.832;4.758;2023-06-26T12:36:47;23.50;96.40
11615;DHT22;5863;52.832;4.758;2023-06-26T12:39:16;23.50;96.30
11615;DHT22;5863;52.832;4.758;2023-06-26T12:41:46;23.40;96.50
11615;DHT22;5863;52.832;4.758;2023-06-26T12:44:19;23.30;96.20
11615;DHT22;5863;52.832;4.758;2023-06-26T12:46:47;23.20;96.60
11615;DHT22;5863;52.832;4.758;2023-06-26T12:49:14;23.10;96.60
11615;DHT22;5863;52.832;4.758;2023-06-26T12:51:41;23.10;96.90
11615;DHT22;5863;52.832;4.758;2023-06-26T12:54:08;23.00;96.80
11615;DHT22;5863;52.832;4.758;2023-06-26T12:56:35;22.90;96.90
11615;DHT22;5863;52.832;4.758;2023-06-26T12:59:02;23.00;97.20
11615;DHT22;5863;52.832;4.758;2023-06-26T13:01:30;22.90;97.30
11615;DHT22;5863;52.832;4.758;2023-06-26T13:03:56;22.90;97.30
11615;DHT22;5863;52.832;4.758;2023-06-26T13:06:23;22.90;97.30
11615;DHT22;5863;52.832;4.758;2023-06-26T13:08:50;22.80;97.00
11615;DHT22;5863;52.832;4.758;2023-06-26T13:11:17;22.70;97.00
11615;DHT22;5863;52.832;4.758;2023-06-26T13:13:43;22.70;97.20
11615;DHT22;5863;52.832;4.758;2023-06-26T13:16:10;22.70;97.40
11615;DHT22;5863;52.832;4.758;2023-06-26T13:18:39;22.60;97.50
11615;DHT22;5863;52.832;4.758;2023-06-26T13:21:06;22.60;97.60
11615;DHT22;5863;52.832;4.758;2023-06-26T13:23:32;22.60;97.90
11615;DHT22;5863;52.832;4.758;2023-06-26T13:26:01;22.50;97.90
11615;DHT22;5863;52.832;4.758;2023-06-26T13:28:28;22.50;97.80
11615;DHT22;5863;52.832;4.758;2023-06-26T13:30:55;22.50;97.90
11615;DHT22;5863;52.832;4.758;2023-06-26T13:33:21;22.40;98.00
11615;DHT22;5863;52.832;4.758;2023-06-26T13:35:52;22.40;97.80
11615;DHT22;5863;52.832;4.758;2023-06-26T13:38:19;22.30;97.40
11615;DHT22;5863;52.832;4.758;2023-06-26T13:40:49;22.30;97.80
11615;DHT22;5863;52.832;4.758;2023-06-26T13:43:16;22.30;97.70
11615;DHT22;5863;52.832;4.758;2023-06-26T13:45:43;22.20;97.90
11615;DHT22;5863;52.832;4.758;2023-06-26T13:48:10;22.10;98.10
11615;DHT22;5863;52.832;4.758;2023-06-26T13:50:36;22.20;98.30
11615;DHT22;5863;52.832;4.758;2023-06-26T13:53:04;22.10;98.40
11615;DHT22;5863;52.832;4.758;2023-06-26T13:55:31;22.10;98.60
11615;DHT22;5863;52.832;4.758;2023-06-26T13:57:58;22.10;98.40
11615;DHT22;5863;52.832;4.758;2023-06-26T14:00:29;22.00;98.40
11615;DHT22;5863;52.832;4.758;2023-06-26T14:02:56;22.00;98.60
11615;DHT22;5863;52.832;4.758;2023-06-26T14:05:23;22.00;98.90
11615;DHT22;5863;52.832;4.758;2023-06-26T14:07:49;22.00;98.70
11615;DHT22;5863;52.832;4.758;2023-06-26T14:10:18;21.90;99.00
11615;DHT22;5863;52.832;4.758;2023-06-26T14:12:44;21.90;98.90
11615;DHT22;5863;52.832;4.758;2023-06-26T14:15:12;21.90;98.80
11615;DHT22;5863;52.832;4.758;2023-06-26T14:17:42;21.90;99.00
11615;DHT22;5863;52.832;4.758;2023-06-26T14:20:10;21.90;98.80
11615;DHT22;5863;52.832;4.758;2023-06-26T14:22:40;21.80;99.00
11615;DHT22;5863;52.832;4.758;2023-06-26T14:25:07;21.80;99.20
11615;DHT22;5863;52.832;4.758;2023-06-26T14:27:37;21.70;99.30
11615;DHT22;5863;52.832;4.758;2023-06-26T14:30:04;21.80;99.60
11615;DHT22;5863;52.832;4.758;2023-06-26T14:32:32;21.80;99.30
11615;DHT22;5863;52.832;4.758;2023-06-26T14:34:59;21.70;99.00
11615;DHT22;5863;52.832;4.758;2023-06-26T14:37:29;21.70;99.20
11615;DHT22;5863;52.832;4.758;2023-06-26T14:39:56;21.70;99.00
11615;DHT22;5863;52.832;4.758;2023-06-26T14:42:23;21.80;98.40
11615;DHT22;5863;52.832;4.758;2023-06-26T14:44:51;21.70;98.30
11615;DHT22;5863;52.832;4.758;2023-06-26T14:47:18;21.70;98.50
11615;DHT22;5863;52.832;4.758;2023-06-26T14:49:44;21.60;98.60
11615;DHT22;5863;52.832;4.758;2023-06-26T14:52:12;21.60;98.00
11615;DHT22;5863;52.832;4.758;2023-06-26T14:54:39;21.60;98.30
11615;DHT22;5863;52.832;4.758;2023-06-26T14:57:06;21.70;98.50
11615;DHT22;5863;52.832;4.758;2023-06-26T14:59:33;21.60;98.80
11615;DHT22;5863;52.832;4.758;2023-06-26T15:02:01;21.60;98.80
11615;DHT22;5863;52.832;4.758;2023-06-26T15:04:28;21.70;98.30
11615;DHT22;5863;52.832;4.758;2023-06-26T15:06:57;21.60;98.00
11615;DHT22;5863;52.832;4.758;2023-06-26T15:09:23;21.60;98.00
11615;DHT22;5863;52.832;4.758;2023-06-26T15:11:50;21.60;98.50
11615;DHT22;5863;52.832;4.758;2023-06-26T15:14:17;21.60;98.60
11615;DHT22;5863;52.832;4.758;2023-06-26T15:16:43;21.60;97.70
11615;DHT22;5863;52.832;4.758;2023-06-26T15:19:11;21.60;97.80
11615;DHT22;5863;52.832;4.758;2023-06-26T15:21:38;21.60;98.10
11615;DHT22;5863;52.832;4.758;2023-06-26T15:24:05;21.50;98.10
11615;DHT22;5863;52.832;4.758;2023-06-26T15:26:32;21.50;98.10
11615;DHT22;5863;52.832;4.758;2023-06-26T15:28:59;21.60;96.50
11615;DHT22;5863;52.832;4.758;2023-06-26T15:31:28;21.60;96.40
11615;DHT22;5863;52.832;4.758;2023-06-26T15:33:54;21.50;96.30
11615;DHT22;5863;52.832;4.758;2023-06-26T15:36:23;21.50;96.60
11615;DHT22;5863;52.832;4.758;2023-06-26T15:38:49;21.40;96.00
11615;DHT22;5863;52.832;4.758;2023-06-26T15:41:16;21.50;96.30
11615;DHT22;5863;52.832;4.758;2023-06-26T15:43:42;21.40;96.30
11615;DHT22;5863;52.832;4.758;2023-06-26T15:46:10;21.30;97.00
11615;DHT22;5863;52.832;4.758;2023-06-26T15:48:36;21.30;97.50